Flag for USA

Past Weather in Queens, New York, USA — Yesterday and Last 2 Weeks

Currently: 28 °F. Chilly. (Weather station: MADIS Weather Station F1075 (APRSWXNET), USA). See more current weather

Past Weather in Queens — Graph

°F

Queens Temperature Yesterday

Maximum temperature yesterday: 35 °F (at 12:11 am)
Minimum temperature yesterday: 23 °F (at 10:11 pm)
Average temperature yesterday: 29 °F

High & Low Weather Summary for the Past Weeks

 TemperatureHumidityPressure
High50 °F (Jan 16, 1:13 pm)99% (Jan 15, 5:11 am)30.19 "Hg (Jan 15, 5:11 am)
Low19 °F (Jan 21, 4:21 am)40% (Jan 23, 4:11 pm)29.20 "Hg (Jan 16, 2:11 pm)
Average36 °F70%29.76 "Hg
* Reported Jan 9 10:01 am — Jan 24 10:41 am, Queens. Weather by CustomWeather, © 2021

Note: Actual official high and low records may vary slightly from our data, if they occured in-between our weather recording intervals... More about our weather records

Queens Weather History for the Previous 24 Hours

Scroll right to see more
 ConditionsComfort  
Time TempWeatherWind HumidityBarometerVisibility
10:41 am
Sun, Jan 24
27 °FChilly.4 mph48%30.03 "HgN/A
10:21 am26 °FChilly.3 mph49%30.03 "HgN/A
10:11 am26 °FChilly.4 mph50%30.04 "HgN/A
9:41 am24 °FCold.3 mph51%30.05 "HgN/A
9:21 am24 °FCold.5 mph51%30.04 "HgN/A
9:11 am24 °FCold.4 mph52%30.04 "HgN/A
8:31 am22 °FCold.7 mph54%30.04 "HgN/A
7:21 am21 °FCold.4 mph56%30.04 "HgN/A
6:21 am22 °FCold.4 mph57%30.02 "HgN/A
6:01 am22 °FCold.6 mph58%30.02 "HgN/A
5:41 am22 °FCold.3 mph58%30.02 "HgN/A
5:21 am23 °FCold.5 mph58%30.01 "HgN/A
5:11 am23 °FCold.4 mph58%30.01 "HgN/A
4:41 am23 °FCold.5 mph58%30.00 "HgN/A
4:21 am23 °FCold.4 mph58%30.00 "HgN/A
4:11 am23 °FCold.2 mph58%30.00 "HgN/A
3:41 am23 °FCold.3 mph58%30.00 "HgN/A
3:31 am23 °FCold.3 mph58%30.00 "HgN/A
2:01 am23 °FCold.4 mph57%30.00 "HgN/A
1:31 am23 °FCold.4 mph57%30.00 "HgN/A
1:11 am23 °FCold.4 mph56%30.00 "HgN/A
12:41 am23 °FCold.4 mph55%30.00 "HgN/A
12:31 am23 °FCold.5 mph55%30.00 "HgN/A
12:11 am23 °FCold.2 mph54%30.00 "HgN/A
11:41 pm
Sat, Jan 23
24 °FCold.4 mph54%30.00 "HgN/A
11:11 pm23 °FCold.4 mph54%30.00 "HgN/A
10:41 pm24 °FCold.5 mph54%30.01 "HgN/A
10:31 pm23 °FCold.6 mph54%30.01 "HgN/A
10:11 pm23 °FCold.5 mph53%30.00 "HgN/A
9:41 pm24 °FCold.6 mph52%30.00 "HgN/A
9:21 pm24 °FCold.6 mph51%30.01 "HgN/A
9:11 pm24 °FCold.7 mph51%30.01 "HgN/A
8:31 pm25 °FChilly.6 mph48%30.00 "HgN/A
7:11 pm27 °FChilly.5 mph44%29.99 "HgN/A
6:41 pm27 °FChilly.6 mph43%29.97 "HgN/A
6:21 pm28 °FChilly.6 mph42%29.96 "HgN/A
6:11 pm28 °FChilly.5 mph42%29.96 "HgN/A
5:41 pm28 °FChilly.5 mph42%29.95 "HgN/A
4:21 pm31 °FChilly.6 mph40%29.90 "HgN/A
4:11 pm31 °FChilly.7 mph40%29.90 "HgN/A
3:11 pm32 °FChilly.6 mph41%29.90 "HgN/A
1:31 pm32 °FChilly.7 mph45%29.88 "HgN/A
12:41 pm33 °FChilly.7 mph46%29.87 "HgN/A
12:21 pm32 °FChilly.7 mph46%29.87 "HgN/A
12:11 pm32 °FChilly.6 mph46%29.88 "HgN/A
11:41 am32 °FChilly.5 mph47%29.89 "HgN/A
11:31 am32 °FChilly.7 mph47%29.89 "HgN/A
11:11 am31 °FChilly.6 mph47%29.90 "HgN/A
Weather by CustomWeather, © 2021

See weather overview